Bekir Hacibekiroglu — TCSY2 — position and weather

sailwx.info

Track history (hours):
 
Tides and Currents Weather Stations Pressure Air Temp Water Temp Dewpoint Dewpoint Depression Visibility Wind Speed Wind Dir Waves Ship Positions

Bekir Hacibekiroglu

Last reported at 2014-Sep-15 00:20 UTC. Time now 2014-Sep-22 08:16 UTC.
Position N 36°09' E 014°54'.

Length 83 m; draft 4.9 m.

Type: Cargo ship. MMSI: 271002635.

Date/timePositionNaut miles runAvg speedWind from/ knotsBaromVisibWave heightAir tempDewpointWater temp
2014-Sep-15 00:20N 36°09' E 014°54'20 9.6
2014-Sep-14 22:16N 35°52' E 014°42'5 4.7
2014-Sep-14 21:11N 35°50' E 014°36'4 1.1
2014-Sep-14 17:32N 35°46' E 014°35'1010.4
2014-Sep-14 16:33N 35°40' E 014°25'1010.0
2014-Sep-14 15:33N 35°35' E 014°14'1010.2
2014-Sep-14 14:33N 35°31' E 014°03'1010.1
2014-Sep-14 13:33N 35°27' E 013°52'1010.2
2014-Sep-14 12:34N 35°22' E 013°41'1010.2
2014-Sep-14 11:33N 35°17' E 013°30'1010.3
2014-Sep-14 10:33N 35°12' E 013°18'1510.2
2014-Sep-14 09:03N 35°06' E 013°01'1510.0
2014-Sep-14 07:31N 34°60' E 012°44'1010.0
2014-Sep-14 06:33N 34°55' E 012°34'1010.0
2014-Sep-14 05:33N 34°51' E 012°23'13 9.8
2014-Sep-14 04:13N 34°46' E 012°08'76 9.8
2014-Sep-13 20:32N 34°12' E 010°46'37 1.2
2014-Sep-12 14:16N 33°55' E 010°06'0 0.0
2014-Sep-12 11:33N 33°55' E 010°06'20 0.5
2014-Sep-10 21:33N 34°06' E 010°26'2110.4
2014-Sep-10 19:33N 34°14' E 010°49'1010.3
2014-Sep-10 18:34N 34°18' E 011°01'1010.2
2014-Sep-10 17:34N 34°22' E 011°12'1210.4
2014-Sep-10 16:24N 34°31' E 011°21'1010.6
2014-Sep-10 15:30N 34°36' E 011°31'1010.9
2014-Sep-10 14:34N 34°41' E 011°42'1110.9
2014-Sep-10 13:33N 34°48' E 011°52'1111.1
2014-Sep-10 12:33N 34°58' E 011°58'5210.2
2014-Sep-10 07:28N 35°43' E 011°28'910.4
2014-Sep-10 06:34N 35°53' E 011°27'5310.4
2014-Sep-10 01:29N 36°45' E 011°22'1010.5
2014-Sep-10 00:34N 36°55' E 011°21'1110.6
2014-Sep-09 23:33N 37°06' E 011°19'1110.7
2014-Sep-09 22:34N 37°16' E 011°18'1010.3
2014-Sep-09 21:34N 37°23' E 011°08'1010.3
2014-Sep-09 20:34N 37°25' E 010°55'1010.3
2014-Sep-09 19:34N 37°27' E 010°42'1010.3
2014-Sep-09 18:33N 37°30' E 010°30'1010.5
2014-Sep-09 17:34N 37°33' E 010°17'1010.3
2014-Sep-09 16:33N 37°33' E 010°04'9 8.7
2014-Sep-09 15:33N 37°31' E 009°53'8 7.8
2014-Sep-09 14:33N 37°28' E 009°44'96 2.9
2014-Sep-08 05:20N 36°56' E 007°50'0 0.0
2014-Sep-08 04:11N 36°56' E 007°50'0 0.0
2014-Sep-08 03:26N 36°56' E 007°50'0 0.0
2014-Sep-08 02:32N 36°56' E 007°50'0 0.0
2014-Sep-08 01:26N 36°56' E 007°50'0 0.0
2014-Sep-08 00:32N 36°56' E 007°50'0 0.0
2014-Sep-07 16:14N 36°56' E 007°50'0 0.0
2014-Sep-07 11:32N 36°56' E 007°50'0 0.0
2014-Sep-07 10:32N 36°56' E 007°50'0 0.0
2014-Sep-05 08:29N 36°56' E 007°50'9 7.7
2014-Sep-05 07:21N 36°60' E 007°60'17 9.7
2014-Sep-05 05:33N 37°08' E 008°19'10 9.8
2014-Sep-05 04:33N 37°12' E 008°30'11 9.7
2014-Sep-05 03:25N 37°17' E 008°42'8 9.2
2014-Sep-05 02:32N 37°21' E 008°51'18 9.0
2014-Sep-05 00:33N 37°28' E 009°12'  
Track history (hours):
 
Tides and Currents Weather Stations Pressure Air Temp Water Temp Dewpoint Dewpoint Depression Visibility Wind Speed Wind Dir Waves Ship Positions

Bekir Hacibekiroglu

Last reported at 2014-Sep-15 00:20 UTC. Time now 2014-Sep-22 08:16 UTC.
Position N 36°09' E 014°54'.

Length 83 m; draft 4.9 m.

Type: Cargo ship. MMSI: 271002635.

Date/timePositionNaut miles runAvg speedWind from/ knotsBaromVisibWave heightAir tempDewpointWater temp
2014-Sep-15 00:20N 36°09' E 014°54'20 9.6
2014-Sep-14 22:16N 35°52' E 014°42'5 4.7
2014-Sep-14 21:11N 35°50' E 014°36'4 1.1
2014-Sep-14 17:32N 35°46' E 014°35'1010.4
2014-Sep-14 16:33N 35°40' E 014°25'1010.0
2014-Sep-14 15:33N 35°35' E 014°14'1010.2
2014-Sep-14 14:33N 35°31' E 014°03'1010.1
2014-Sep-14 13:33N 35°27' E 013°52'1010.2
2014-Sep-14 12:34N 35°22' E 013°41'1010.2
2014-Sep-14 11:33N 35°17' E 013°30'1010.3
2014-Sep-14 10:33N 35°12' E 013°18'1510.2
2014-Sep-14 09:03N 35°06' E 013°01'1510.0
2014-Sep-14 07:31N 34°60' E 012°44'1010.0
2014-Sep-14 06:33N 34°55' E 012°34'1010.0
2014-Sep-14 05:33N 34°51' E 012°23'13 9.8
2014-Sep-14 04:13N 34°46' E 012°08'76 9.8
2014-Sep-13 20:32N 34°12' E 010°46'37 1.2
2014-Sep-12 14:16N 33°55' E 010°06'0 0.0
2014-Sep-12 11:33N 33°55' E 010°06'20 0.5
2014-Sep-10 21:33N 34°06' E 010°26'2110.4
2014-Sep-10 19:33N 34°14' E 010°49'1010.3
2014-Sep-10 18:34N 34°18' E 011°01'1010.2
2014-Sep-10 17:34N 34°22' E 011°12'1210.4
2014-Sep-10 16:24N 34°31' E 011°21'1010.6
2014-Sep-10 15:30N 34°36' E 011°31'1010.9
2014-Sep-10 14:34N 34°41' E 011°42'1110.9
2014-Sep-10 13:33N 34°48' E 011°52'1111.1
2014-Sep-10 12:33N 34°58' E 011°58'5210.2
2014-Sep-10 07:28N 35°43' E 011°28'910.4
2014-Sep-10 06:34N 35°53' E 011°27'5310.4
2014-Sep-10 01:29N 36°45' E 011°22'1010.5
2014-Sep-10 00:34N 36°55' E 011°21'1110.6
2014-Sep-09 23:33N 37°06' E 011°19'1110.7
2014-Sep-09 22:34N 37°16' E 011°18'1010.3
2014-Sep-09 21:34N 37°23' E 011°08'1010.3
2014-Sep-09 20:34N 37°25' E 010°55'1010.3
2014-Sep-09 19:34N 37°27' E 010°42'1010.3
2014-Sep-09 18:33N 37°30' E 010°30'1010.5
2014-Sep-09 17:34N 37°33' E 010°17'1010.3
2014-Sep-09 16:33N 37°33' E 010°04'9 8.7
2014-Sep-09 15:33N 37°31' E 009°53'8 7.8
2014-Sep-09 14:33N 37°28' E 009°44'96 2.9
2014-Sep-08 05:20N 36°56' E 007°50'0 0.0
2014-Sep-08 04:11N 36°56' E 007°50'0 0.0
2014-Sep-08 03:26N 36°56' E 007°50'0 0.0
2014-Sep-08 02:32N 36°56' E 007°50'0 0.0
2014-Sep-08 01:26N 36°56' E 007°50'0 0.0
2014-Sep-08 00:32N 36°56' E 007°50'0 0.0
2014-Sep-07 16:14N 36°56' E 007°50'0 0.0
2014-Sep-07 11:32N 36°56' E 007°50'0 0.0
2014-Sep-07 10:32N 36°56' E 007°50'0 0.0
2014-Sep-05 08:29N 36°56' E 007°50'9 7.7
2014-Sep-05 07:21N 36°60' E 007°60'17 9.7
2014-Sep-05 05:33N 37°08' E 008°19'10 9.8
2014-Sep-05 04:33N 37°12' E 008°30'11 9.7
2014-Sep-05 03:25N 37°17' E 008°42'8 9.2
2014-Sep-05 02:32N 37°21' E 008°51'18 9.0
2014-Sep-05 00:33N 37°28' E 009°12'  

Dump ship's entire track history